• Join FlightAware (Why Join?)
  • Login
  • US Flag GB Flag 
10:46 EST


 

Airport Tracker/Info


-or-


 

Live Flight TrackerFlight Track Log ✈ AMF1026 ✈ 06-May-2013 ✈ KALB - KCVG

Flight Track Log - Related Links

Times and Time Zones

All times are in EDT time to prevent confusion due to time zone crossing. See the AMF1026 flight status page for this flight to view local times or setup timezone preferences in your user account.

Time Position Orientation Groundspeed Altitude Reporting Facility
EDT Latitude Longitude Course Direction KTS MPH feet Rate Location/Type
20:47 42.7086 -73.8386 309° West 185 213 2,400  Level Boston Center
20:48 42.7433 -73.8961 309° West 210 242 4,200 1,560 Climbing Boston Center
20:49 42.7489 -73.9414 280° West 222 255 5,100 1,440 Climbing Boston Center
20:50 42.7500 -74.0206 271° West 222 255 6,700 1,560 Climbing Boston Center
20:51 42.7531 -74.0997 273° West 208 239 8,300 1,440 Climbing Boston Center
20:53 42.7153 -74.2514 251° West 212 244 11,100 1,320 Climbing Boston Center
20:54 42.6975 -74.3158 249° West 212 244 12,300 1,200 Climbing Boston Center
20:55 42.6775 -74.3972 252° West 207 238 13,600 1,140 Climbing Boston Center
20:56 42.6658 -74.4675 257° West 207 238 14,600 1,080 Climbing Boston Center
20:58 42.6278 -74.6103 250° West 207 238 17,000 1,020 Climbing Boston Center
20:59 42.6094 -74.6914 253° West 207 238 17,800 480 Climbing Boston Center
21:00 42.5911 -74.7667 252° West 226 260 18,000 300 Climbing Boston Center
21:01 42.5686 -74.8589 252° West 243 280 18,500 600 Climbing Boston Center
21:02 42.5500 -74.9428 253° West 248 285 19,300 660 Climbing Boston Center
21:03 42.5294 -75.0267 252° West 243 280 19,900 300 Climbing Boston Center
21:04 42.5022 -75.1156 247° West 248 285 20,000  Climbing Boston Center
21:05 42.4475 -75.2836 246° West 259 298 20,000  Level New York Center
21:06 42.4211 -75.3744 249° West 265 305 20,000  Level New York Center
21:07 42.3947 -75.4622 248° West 265 305 20,000  Level New York Center
21:08 42.3622 -75.5469 243° Southwest 265 305 20,000  Level New York Center
21:09 42.3275 -75.6342 242° Southwest 265 305 20,000  Level New York Center
21:10 42.2928 -75.7186 241° Southwest 270 311 20,000  Level New York Center
21:11 42.2581 -75.8028 241° Southwest 265 305 20,000  Level New York Center
21:12 42.2292 -75.8928 247° West 260 299 20,000  Level New York Center
21:13 42.2044 -75.9833 250° West 260 299 20,000  Level New York Center
21:14 42.1819 -76.0711 251° West 260 299 20,000  Level New York Center
21:15 42.1508 -76.1581 244° Southwest 260 299 20,000  Level New York Center
21:16 42.1200 -76.2422 244° Southwest 260 299 20,000  Level New York Center
21:18 42.0866 -76.3372 245° Southwest  Level FlightAware Approximate
21:19 42.0389 -76.5092 245° Southwest 255 293 20,000  Level New York Center
21:20 42.0094 -76.5961 246° West 255 293 20,000  Level New York Center
21:21 41.9781 -76.6853 245° Southwest 260 299 20,000  Level New York Center
21:22 41.9508 -76.7722 247° West 260 299 20,000  Level New York Center
21:24 41.9150 -76.8828 246° West 264 304 20,000  Level Cleveland Center
21:25 41.8688 -76.9487 245° Southwest  Level FlightAware Approximate
21:25 41.8861 -76.9597 243° Southwest 264 304 20,000  Level Cleveland Center
21:26 41.8533 -77.0453 243° Southwest 259 298 20,000  Level Cleveland Center
21:27 41.8183 -77.1281 240° Southwest 259 298 20,000  Level Cleveland Center
21:28 41.7836 -77.2164 242° Southwest 265 305 20,000  Level Cleveland Center
21:29 41.7506 -77.3014 242° Southwest 265 305 20,000  Level Cleveland Center
21:30 41.7153 -77.3867 241° Southwest 265 305 20,000  Level Cleveland Center
21:31 41.6822 -77.4747 243° Southwest 265 305 20,000  Level Cleveland Center
21:32 41.6514 -77.5622 245° Southwest 270 311 20,000  Level Cleveland Center
21:33 41.6244 -77.6525 248° West 265 305 20,000  Level Cleveland Center
21:34 41.5911 -77.7400 243° Southwest 265 305 20,000  Level Cleveland Center
21:35 41.5642 -77.8300 248° West 265 305 20,000  Level Cleveland Center
21:36 41.5331 -77.9175 245° Southwest 265 305 20,000  Level Cleveland Center
21:37 41.5017 -78.0075 245° Southwest 265 305 20,000  Level Cleveland Center
21:38 41.4724 -78.0931 245° Southwest  Level FlightAware Approximate
21:39 41.4472 -78.1842 245° Southwest 265 305 20,000  Level Cleveland Center
21:40 41.4219 -78.2764 250° West 265 305 20,000  Level Cleveland Center
21:41 41.4008 -78.3686 253° West 265 305 20,000  Level Cleveland Center
21:42 41.3778 -78.4772 254° West 265 305 20,000  Level Cleveland Center
21:43 41.3522 -78.5667 249° West 270 311 20,000  Level Cleveland Center
21:44 41.3311 -78.6586 253° West 270 311 20,000  Level Cleveland Center
21:45 41.3033 -78.7506 248° West 270 311 20,000  Level Cleveland Center
21:46 41.2797 -78.8397 251° West 270 311 20,000  Level Cleveland Center
21:47 41.2519 -78.9289 248° West 270 311 20,000  Level Cleveland Center
21:48 41.2217 -79.0150 245° Southwest 270 311 20,000  Level Cleveland Center
21:49 41.1894 -79.1014 244° Southwest 264 304 20,000  Level Cleveland Center
21:50 41.1572 -79.1822 242° Southwest 259 298 20,000  Level Cleveland Center
21:51 41.1228 -79.2683 242° Southwest 259 298 20,000  Level Cleveland Center
21:52 41.0925 -79.3544 245° Southwest 264 304 20,000  Level Cleveland Center
21:53 41.0600 -79.4375 243° Southwest 264 304 20,000  Level Cleveland Center
21:54 41.0233 -79.5181 239° Southwest 264 304 20,000  Level Cleveland Center
21:55 40.9928 -79.5983 243° Southwest 264 304 20,000  Level Cleveland Center
21:56 40.9675 -79.6855 249° West  Level FlightAware Approximate
21:58 40.9281 -79.8631 237° Southwest 254 292 20,000  Level Cleveland Center
21:59 40.9033 -79.9542 250° West 254 292 20,000  Level Cleveland Center
22:00 40.8743 -80.0368 245° Southwest  Level FlightAware Approximate
22:01 40.8542 -80.1192 245° Southwest 254 292 20,000  Level Cleveland Center
22:02 40.8233 -80.2072 245° Southwest 259 298 20,000  Level Cleveland Center
22:03 40.7745 -80.2844 237° Southwest  Level FlightAware Approximate
22:03 40.7903 -80.2897 242° Southwest 259 298 20,000  Level Cleveland Center
22:04 40.7444 -80.3611 230° Southwest 259 298 20,000  Level Cleveland Center
22:05 40.7008 -80.4489 237° Southwest 264 304 20,000  Level Cleveland Center
22:06 40.6572 -80.5256 233° Southwest 264 304 20,000  Level Cleveland Center
22:07 40.6153 -80.6050 235° Southwest 269 310 20,000  Level Cleveland Center
22:08 40.5861 -80.6761 242° Southwest 264 304 20,000  Level Cleveland Center
22:09 40.5506 -80.7581 240° Southwest 258 297 20,000  Level Cleveland Center
22:11 40.4794 -80.9242 241° Southwest 263 303 20,000  Level Cleveland Center
22:12 40.4375 -81.0033 235° Southwest 268 308 20,000  Level Cleveland Center
22:13 40.3914 -81.0792 231° Southwest 268 308 20,000  Level Cleveland Center
22:14 40.3450 -81.1553 231° Southwest 268 308 20,000  Level Cleveland Center
22:16 40.2339 -81.3336 231° Southwest 266 306 20,000  Level Indianapolis Center
22:18 40.1447 -81.4903 233° Southwest 265 305 20,000  Level Indianapolis Center
22:19 40.1006 -81.5689 234° Southwest 266 306 20,000  Level Indianapolis Center
22:20 40.0625 -81.6553 240° Southwest 270 311 20,000  Level Indianapolis Center
22:21 40.0253 -81.7442 241° Southwest 275 316 20,000  Level Indianapolis Center
22:22 39.9881 -81.8397 243° Southwest 276 318 20,000  Level Indianapolis Center
22:23 39.9519 -81.9303 243° Southwest 278 320 20,000  Level Indianapolis Center
22:24 39.9169 -82.0200 243° Southwest 277 319 20,000  Level Indianapolis Center
22:25 39.8808 -82.1108 243° Southwest 279 321 20,000  Level Indianapolis Center
22:26 39.8472 -82.2033 245° Southwest 279 321 20,000  Level Indianapolis Center
22:27 39.8161 -82.2972 247° West 282 325 20,000  Level Indianapolis Center
22:28 39.7850 -82.3914 247° West 281 323 20,000  Level Indianapolis Center
22:29 39.7550 -82.4861 248° West 281 323 20,000  Level Indianapolis Center
22:30 39.7247 -82.5822 248° West 283 326 20,000  Level Indianapolis Center
22:31 39.6953 -82.6778 248° West 283 326 20,000  Level Indianapolis Center
22:32 39.6675 -82.7753 250° West 286 329 20,000  Level Indianapolis Center
22:33 39.6411 -82.8733 251° West 285 328 20,000  Level Indianapolis Center
22:34 39.6136 -82.9714 250° West 286 329 20,000  Level Indianapolis Center
22:35 39.5856 -83.0697 250° West 287 330 20,000 -480 Level Indianapolis Center
22:37 39.5555 -83.1940 253° West  Level FlightAware Approximate
22:38 39.4992 -83.3706 253° West 305 351 18,100  Level Indianapolis Center
22:39 39.4689 -83.4792 250° West 314 361 17,000 -1,200 Descending Indianapolis Center
22:41 39.4243 -83.5872 242° Southwest  Level FlightAware Approximate
22:41 39.3917 -83.6725 242° Southwest 294 338 14,500  Level Indianapolis Center
22:42 39.3508 -83.7647 240° Southwest 292 336 13,000 -1,560 Descending Indianapolis Center
22:43 39.3156 -83.8608 245° Southwest 294 338 11,400 -1,020 Descending Indianapolis Center
22:44 39.2858 -83.9561 248° West 285 328 11,000 -240 Descending Indianapolis Center
22:45 39.2744 -84.0575 262° West 284 327 11,000 -720 Level Indianapolis Center
22:46 39.2586 -84.1594 259° West 287 330 9,600 -1,500 Descending Indianapolis Center
22:48 39.2386 -84.3436 262° West 256 295 6,500 -1,440 Descending Indianapolis Center
22:49 39.2172 -84.4314 253° West 254 292 5,300 -1,260 Descending Indianapolis Center
22:50 39.1944 -84.5217 252° West 257 296 4,000 -900 Descending Indianapolis Center
22:51 39.1678 -84.6244 252° West 260 299 3,500 -960 Descending Indianapolis Center
22:52 39.1500 -84.6500 228° Southwest 249 287 2,700 -1,260 Descending Cincinnati TRACON
22:53 39.1167 -84.6833 218° Southwest 110 127 1,800 -720 Descending Cincinnati TRACON
22:54 39.0833 -84.6833 180° South 104 120 1,300 -480 Descending Cincinnati TRACON
22:56 39.0488 -84.6678 186° South  Level Estimated
23:03 39.0488 -84.6678 186° South  Level Estimated